Time;durP1;ratioP1;P1;durP2;ratioP2;P2;SDS_P1;SDS_P2;PMS_P1;PMS_P2;Temp;Humidity;BMP_temperature;BMP_pressure;BME280_temperature;BME280_humidity;BME280_pressure;Samples;Min_cycle;Max_cycle;Signal;HPM_P1;HPM_P2
2023/12/21 00:36:33;;;;;;;2.95;1.38;;;;;;;12.93;75.11;100721.63;6263672;22;20334;-88
2023/12/21 00:39:02;;;;;;;2.92;1.50;;;;;;;12.84;75.97;100727.50;6276278;22;20042;-89
2023/12/21 00:41:31;;;;;;;5.00;1.70;;;;;;;12.77;76.71;100726.50;6278321;22;20366;-89
2023/12/21 00:44:02;;;;;;;1.67;1.27;;;;;;;12.59;76.88;100718.34;6278584;22;20043;-89
2023/12/21 00:46:35;;;;;;;2.78;1.38;;;;;;;12.33;80.24;100725.59;6277153;22;20354;-88
2023/12/21 00:49:05;;;;;;;1.58;1.33;;;;;;;12.16;82.49;100725.22;6275104;22;20011;-90
2023/12/21 00:51:47;;;;;;;2.95;1.00;;;;;;;12.08;83.75;100730.22;6275342;22;20050;-88
2023/12/21 00:54:17;;;;;;;2.40;1.15;;;;;;;11.97;84.05;100730.81;6275527;22;20030;-90
2023/12/21 00:56:46;;;;;;;2.65;1.38;;;;;;;11.94;85.33;100745.47;6275642;22;20099;-88
2023/12/21 00:59:24;;;;;;;3.22;1.45;;;;;;;11.81;86.23;100738.19;6275120;22;20024;-87
2023/12/21 01:01:53;;;;;;;2.53;1.42;;;;;;;11.75;87.22;100738.06;6273446;22;20472;-88
2023/12/21 01:04:22;;;;;;;1.67;1.23;;;;;;;11.70;88.12;100740.56;6274325;22;20094;-85
2023/12/21 01:06:52;;;;;;;2.05;1.23;;;;;;;11.60;88.57;100750.66;6273669;22;20466;-86
2023/12/21 01:09:24;;;;;;;2.13;1.42;;;;;;;11.44;90.70;100751.97;6273964;22;20347;-87
2023/12/21 01:11:53;;;;;;;2.53;1.50;;;;;;;11.31;93.00;100748.16;6273204;22;20063;-86
2023/12/21 01:14:22;;;;;;;2.85;1.50;;;;;;;11.29;94.37;100762.78;6273541;22;20075;-89
2023/12/21 01:16:52;;;;;;;2.15;1.35;;;;;;;11.25;94.78;100766.16;6273548;22;20019;-88
2023/12/21 01:19:21;;;;;;;4.65;1.58;;;;;;;11.16;94.99;100766.78;6281681;22;20015;-89
2023/12/21 01:22:03;;;;;;;4.03;1.45;;;;;;;11.11;95.21;100764.06;6278081;22;20031;-87
2023/12/21 01:24:32;;;;;;;5.03;2.30;;;;;;;11.15;96.06;100777.09;6276281;22;20145;-89
2023/12/21 01:27:20;;;;;;;3.25;2.30;;;;;;;11.06;96.49;100776.00;6277221;22;20058;-89
2023/12/21 01:29:49;;;;;;;4.38;2.45;;;;;;;11.03;97.88;100778.50;6276895;22;20034;-87
2023/12/21 01:32:18;;;;;;;5.32;2.70;;;;;;;11.00;98.85;100778.41;6275496;22;20047;-88
2023/12/21 01:34:51;;;;;;;3.08;2.08;;;;;;;10.96;98.64;100781.75;6279087;22;20011;-89
2023/12/21 01:37:21;;;;;;;3.50;2.17;;;;;;;10.93;98.67;100783.38;6274584;22;20023;-89
2023/12/21 01:39:54;;;;;;;3.80;2.80;;;;;;;10.87;99.91;100778.91;6277589;22;20016;-89
2023/12/21 01:42:33;;;;;;;3.78;2.13;;;;;;;10.81;99.68;100777.03;6278503;22;20097;-90
2023/12/21 02:24:19;;;;;;;3.15;1.70;;;;;;;9.66;100.00;100799.22;6282345;22;20027;-88
2023/12/21 02:26:50;;;;;;;5.38;1.85;;;;;;;9.69;100.00;100804.53;6275705;22;20026;-86
2023/12/21 02:29:19;;;;;;;6.40;2.23;;;;;;;9.66;100.00;100812.16;6274925;22;20016;-85
2023/12/21 02:31:50;;;;;;;7.15;3.03;;;;;;;9.66;100.00;100819.91;6283439;22;20019;-89
2023/12/21 03:18:16;;;;;;;7.57;3.53;;;;;;;8.45;100.00;100839.56;6281063;22;20115;-91
2023/12/21 03:20:45;;;;;;;10.55;3.75;;;;;;;8.47;100.00;100835.34;6270590;22;20023;-85
2023/12/21 03:23:15;;;;;;;9.93;3.92;;;;;;;8.51;100.00;100841.50;6273054;22;20644;-85
2023/12/21 03:25:49;;;;;;;8.52;4.45;;;;;;;8.53;100.00;100837.31;6272225;22;20020;-85
2023/12/21 03:30:53;;;;;;;5.43;2.65;;;;;;;8.51;100.00;100834.66;6280790;22;20426;-86
2023/12/21 03:33:30;;;;;;;8.60;2.67;;;;;;;8.53;100.00;100840.75;6270869;22;20069;-86
2023/12/21 03:35:59;;;;;;;5.38;2.55;;;;;;;8.54;100.00;100844.19;6273773;22;20031;-87
2023/12/21 03:38:29;;;;;;;5.28;2.85;;;;;;;8.55;100.00;100840.81;6273670;22;20115;-88
2023/12/21 06:15:22;;;;;;;5.35;3.28;;;;;;;6.59;100.00;100995.22;6275335;22;20094;-86
2023/12/21 06:17:51;;;;;;;6.93;3.20;;;;;;;6.49;100.00;100994.78;6272718;22;20078;-87
2023/12/21 06:20:23;;;;;;;12.13;3.40;;;;;;;6.38;100.00;100997.63;6274066;22;20012;-86
2023/12/21 06:23:02;;;;;;;6.53;2.80;;;;;;;6.31;100.00;101003.25;6273273;22;20300;-86
2023/12/21 06:25:31;;;;;;;6.43;2.88;;;;;;;6.27;100.00;100994.50;6274308;22;20247;-86
2023/12/21 06:28:00;;;;;;;6.60;3.10;;;;;;;6.24;100.00;100991.78;6272005;22;20020;-87
2023/12/21 06:30:40;;;;;;;4.53;2.50;;;;;;;6.17;100.00;100988.00;6273579;22;20011;-87
2023/12/21 06:33:09;;;;;;;6.90;3.20;;;;;;;6.10;100.00;100992.78;6273211;22;20024;-86
2023/12/21 06:35:38;;;;;;;4.85;2.63;;;;;;;6.11;100.00;101000.53;6272523;22;20150;-87
2023/12/21 06:38:10;;;;;;;4.90;2.50;;;;;;;6.13;100.00;101008.34;6273095;22;20073;-86
2023/12/21 06:40:45;;;;;;;9.18;3.58;;;;;;;6.15;100.00;101014.44;6273093;22;20023;-87
2023/12/21 06:43:14;;;;;;;9.27;3.35;;;;;;;6.14;100.00;101017.78;6273890;22;20027;-86
2023/12/21 06:45:47;;;;;;;10.20;3.67;;;;;;;6.10;100.00;101018.47;6272166;22;20473;-86
2023/12/21 06:48:25;;;;;;;7.15;3.28;;;;;;;6.07;100.00;101022.63;6273788;22;20043;-85
2023/12/21 06:50:54;;;;;;;6.97;3.53;;;;;;;6.09;100.00;101030.41;6276774;22;20070;-86
2023/12/21 06:53:23;;;;;;;8.95;3.10;;;;;;;6.11;100.00;101033.06;6274356;22;20074;-85
2023/12/21 06:55:54;;;;;;;7.95;3.80;;;;;;;6.13;100.00;101039.16;6273442;22;20023;-85
2023/12/21 06:58:25;;;;;;;6.97;3.72;;;;;;;6.08;100.00;101039.81;6273027;22;20103;-86
2023/12/21 07:00:57;;;;;;;7.75;3.35;;;;;;;6.04;100.00;101030.16;6273362;22;20012;-85
2023/12/21 07:03:27;;;;;;;12.63;4.32;;;;;;;6.08;100.00;101034.66;6273635;22;20073;-86
2023/12/21 07:06:03;;;;;;;9.73;4.10;;;;;;;6.10;100.00;101037.31;6273263;22;20022;-85
2023/12/21 07:08:33;;;;;;;8.07;3.42;;;;;;;6.07;100.00;101047.44;6272377;22;20043;-85
2023/12/21 07:11:04;;;;;;;8.48;4.03;;;;;;;5.99;100.00;101033.31;6273943;22;20015;-86
2023/12/21 07:13:34;;;;;;;8.80;3.40;;;;;;;5.97;100.00;101035.78;6272882;22;20027;-86
2023/12/21 07:16:09;;;;;;;4.75;3.00;;;;;;;5.95;100.00;101045.09;6272912;22;20073;-85
2023/12/21 07:18:42;;;;;;;9.55;3.45;;;;;;;5.86;100.00;101042.00;6274142;22;20020;-85
2023/12/21 07:21:13;;;;;;;5.85;3.20;;;;;;;5.72;100.00;101037.81;6272089;22;20016;-85
2023/12/21 07:23:49;;;;;;;5.30;2.70;;;;;;;5.65;100.00;101042.63;6272882;22;20020;-85
2023/12/21 07:26:18;;;;;;;4.05;2.40;;;;;;;5.65;100.00;101037.50;6272734;22;20077;-85
2023/12/21 07:28:47;;;;;;;9.90;2.95;;;;;;;5.65;100.00;101042.63;6276972;22;20065;-85
2023/12/21 07:31:27;;;;;;;7.13;3.05;;;;;;;5.56;100.00;101041.25;6271493;22;20019;-85
2023/12/21 07:33:57;;;;;;;11.77;3.53;;;;;;;5.49;100.00;101050.31;6271165;22;20073;-85
2023/12/21 07:36:26;;;;;;;8.52;3.78;;;;;;;5.48;100.00;101048.56;6272922;22;20020;-86
2023/12/21 07:39:00;;;;;;;7.65;3.15;;;;;;;5.49;100.00;101050.31;6271772;22;20019;-87
2023/12/21 07:41:33;;;;;;;8.95;3.70;;;;;;;5.49;100.00;101049.44;6272732;22;20019;-86
2023/12/21 07:44:01;;;;;;;;;;;;;;;5.51;100.00;101053.84;6271711;22;20023;-87
2023/12/21 07:46:32;;;;;;;7.15;3.45;;;;;;;5.52;100.00;101060.75;6272916;22;19919;-87
2023/12/21 07:49:04;;;;;;;7.10;3.65;;;;;;;5.52;100.00;101055.63;6272645;22;20394;-86
2023/12/21 07:51:34;;;;;;;11.95;4.35;;;;;;;5.53;100.00;101051.38;6273378;22;20074;-87
2023/12/21 07:54:03;;;;;;;8.35;4.10;;;;;;;5.52;100.00;101047.94;6271907;22;20062;-87
2023/12/21 07:56:33;;;;;;;9.48;4.35;;;;;;;5.54;100.00;101054.00;6271767;22;20016;-87
2023/12/21 07:59:08;;;;;;;13.45;4.82;;;;;;;5.45;100.00;101053.50;6272595;22;20426;-87
2023/12/21 08:01:40;;;;;;;12.93;5.13;;;;;;;5.44;100.00;101060.31;6272170;22;20016;-87
2023/12/21 08:04:11;;;;;;;12.37;5.50;;;;;;;5.43;100.00;101057.69;6274795;22;20019;-85
2023/12/21 08:06:40;;;;;;;13.95;4.85;;;;;;;5.44;100.00;101062.00;6273370;22;20389;-86
2023/12/21 08:09:12;;;;;;;12.13;5.53;;;;;;;5.41;100.00;101060.16;6272552;22;20015;-86
2023/12/21 08:11:41;;;;;;;12.23;4.50;;;;;;;5.38;100.00;101066.78;6272310;22;20019;-87
2023/12/21 08:14:11;;;;;;;10.90;5.30;;;;;;;5.36;100.00;101058.13;6272590;22;20091;-86
2023/12/21 08:16:52;;;;;;;;;;;;;;;;;;;;;
2023/12/21 08:19:22;;;;;;;11.55;5.28;;;;;;;5.37;100.00;101067.59;6272306;22;20020;-86
2023/12/21 08:21:51;;;;;;;11.52;4.38;;;;;;;5.26;100.00;101069.56;6271368;22;20016;-86
2023/12/21 08:24:20;;;;;;;8.95;4.25;;;;;;;5.29;100.00;101073.97;6271592;22;20015;-86
2023/12/21 08:26:58;;;;;;;8.52;4.28;;;;;;;5.33;100.00;101070.78;6271511;22;20020;-86
2023/12/21 08:29:28;;;;;;;7.57;3.65;;;;;;;5.38;100.00;101071.94;6272222;22;20026;-85
2023/12/21 08:32:00;;;;;;;13.40;4.40;;;;;;;5.42;100.00;101071.31;6274755;22;20016;-85
2023/12/21 08:34:34;;;;;;;8.15;3.63;;;;;;;5.43;100.00;101080.78;6273856;22;20020;-85
2023/12/21 08:37:03;;;;;;;6.55;4.32;;;;;;;5.44;100.00;101062.00;6272999;22;20346;-87
2023/12/21 08:39:32;;;;;;;11.60;4.30;;;;;;;5.50;100.00;101077.75;6271551;22;20100;-88
2023/12/21 08:42:02;;;;;;;9.13;4.22;;;;;;;5.49;100.00;101075.09;6276336;22;20019;-86
2023/12/21 08:44:34;;;;;;;6.78;3.55;;;;;;;5.53;100.00;101090.75;6272569;22;20023;-86
2023/12/21 08:47:06;;;;;;;8.18;4.00;;;;;;;5.48;100.00;101094.75;6272415;22;20023;-86
2023/12/21 08:49:35;;;;;;;8.13;4.30;;;;;;;5.38;100.00;101092.44;6272390;22;20074;-86
2023/12/21 08:52:04;;;;;;;12.80;4.03;;;;;;;5.25;100.00;101094.34;6271854;22;20012;-86
2023/12/21 08:54:41;;;;;;;11.15;4.13;;;;;;;5.23;100.00;101093.38;6272086;22;20451;-86
2023/12/21 08:57:12;;;;;;;7.68;3.53;;;;;;;5.24;100.00;101097.72;6271656;22;20023;-86
2023/12/21 08:59:41;;;;;;;11.50;3.78;;;;;;;5.25;100.00;101085.78;6272589;22;20019;-86
2023/12/21 09:02:13;;;;;;;8.27;3.53;;;;;;;5.31;100.00;101095.47;6270760;22;20058;-86
2023/12/21 09:04:44;;;;;;;9.47;3.03;;;;;;;5.28;100.00;101090.19;6272449;22;20443;-86
2023/12/21 09:07:13;;;;;;;13.63;3.30;;;;;;;5.17;100.00;101093.00;6271085;22;20020;-86
2023/12/21 09:09:43;;;;;;;3.90;2.17;;;;;;;5.12;100.00;101089.31;6272219;22;20031;-84
2023/12/21 09:12:12;;;;;;;4.93;2.00;;;;;;;5.09;100.00;101093.41;6271346;22;20011;-85
2023/12/21 09:14:45;;;;;;;5.07;2.40;;;;;;;5.03;100.00;101092.22;6270923;22;20027;-85
2023/12/21 09:17:16;;;;;;;4.05;2.35;;;;;;;4.91;100.00;101072.72;6272456;22;20016;-85
2023/12/21 09:19:47;;;;;;;4.43;2.63;;;;;;;4.95;100.00;101085.81;6274624;22;20027;-85
2023/12/21 09:22:19;;;;;;;4.03;1.98;;;;;;;4.96;100.00;101091.81;6272171;22;20036;-85
2023/12/21 09:24:50;;;;;;;4.38;2.15;;;;;;;4.99;100.00;101087.75;6270995;22;20070;-85
2023/12/21 09:27:20;;;;;;;6.15;2.25;;;;;;;5.03;100.00;101088.78;6271431;22;20043;-84
2023/12/21 09:29:49;;;;;;;4.55;1.88;;;;;;;5.02;100.00;101081.91;6271998;22;20016;-85
2023/12/21 09:32:28;;;;;;;4.20;2.53;;;;;;;5.07;100.00;101079.59;6271271;22;20016;-87
2023/12/21 09:34:57;;;;;;;3.78;2.25;;;;;;;5.11;100.00;101087.56;6273249;22;20016;-85
2023/12/21 09:37:26;;;;;;;4.20;2.05;;;;;;;5.11;100.00;101077.28;6272638;22;20027;-84
2023/12/21 09:39:56;;;;;;;8.35;2.65;;;;;;;5.18;100.00;101089.66;6273462;22;20026;-85
2023/12/21 09:42:32;;;;;;;3.78;2.20;;;;;;;5.21;100.00;101086.38;6274240;22;20016;-85
2023/12/21 09:45:05;;;;;;;3.83;1.85;;;;;;;5.23;100.00;101098.50;6275007;22;20039;-87
2023/12/21 09:47:58;;;;;;;7.30;2.35;;;;;;;5.20;100.00;101090.66;6273914;22;20408;-87
2023/12/21 09:50:30;;;;;;;4.10;2.17;;;;;;;5.24;100.00;101097.72;6274028;22;20058;-85
2023/12/21 09:53:06;;;;;;;3.33;2.03;;;;;;;5.24;100.00;101097.72;6273733;22;20027;-85
2023/12/21 09:55:35;;;;;;;3.63;2.03;;;;;;;5.25;100.00;101101.16;6274051;22;20094;-86
2023/12/21 09:58:06;;;;;;;7.55;2.40;;;;;;;5.24;100.00;101102.84;6276860;22;20019;-85
2023/12/21 10:00:35;;;;;;;4.65;2.35;;;;;;;5.24;100.00;101091.69;6273785;22;20019;-85
2023/12/21 10:03:10;;;;;;;9.05;2.47;;;;;;;5.30;100.00;101106.56;6274333;22;20459;-85
2023/12/21 10:05:39;;;;;;;4.10;2.28;;;;;;;5.30;100.00;101106.56;6273057;22;20074;-85
2023/12/21 10:08:09;;;;;;;5.10;1.90;;;;;;;5.31;100.00;101110.88;6275864;22;20023;-86
2023/12/21 10:10:39;;;;;;;3.92;1.92;;;;;;;5.31;100.00;101100.59;6273737;22;20054;-85
2023/12/21 10:13:14;;;;;;;5.28;2.30;;;;;;;5.33;100.00;101109.28;6273301;22;20074;-85
2023/12/21 10:15:46;;;;;;;4.70;2.00;;;;;;;5.31;100.00;101110.88;6273827;22;20031;-85
2023/12/21 10:18:17;;;;;;;4.70;2.28;;;;;;;5.30;100.00;101109.13;6270063;22;20458;-86
2023/12/21 10:20:46;;;;;;;3.50;2.13;;;;;;;5.29;100.00;101097.06;6273684;22;20091;-86
2023/12/21 10:23:16;;;;;;;4.25;2.30;;;;;;;5.39;100.00;101107.06;6271934;22;20016;-85
2023/12/21 10:25:48;;;;;;;6.03;2.88;;;;;;;5.42;100.00;101104.66;6272534;22;20530;-86
2023/12/21 10:28:17;;;;;;;7.77;3.47;;;;;;;5.43;100.00;101103.88;6273271;22;20019;-85
2023/12/21 10:31:04;;;;;;;5.90;3.17;;;;;;;5.41;100.00;101106.34;6273826;22;20012;-85
2023/12/21 10:33:35;;;;;;;6.13;3.35;;;;;;;5.40;100.00;101119.09;6275617;22;20023;-85
2023/12/21 10:36:05;;;;;;;8.68;3.88;;;;;;;5.36;100.00;101115.47;6275680;22;20015;-85
2023/12/21 10:38:44;;;;;;;7.43;3.15;;;;;;;5.37;100.00;101114.66;6273764;22;20024;-86
2023/12/21 10:41:13;;;;;;;7.93;3.35;;;;;;;5.35;100.00;101110.25;6273066;22;20432;-85
2023/12/21 10:43:43;;;;;;;8.43;3.72;;;;;;;5.37;100.00;101117.22;6272782;22;20083;-85
2023/12/21 10:46:15;;;;;;;7.38;3.40;;;;;;;5.35;100.00;101116.25;6273548;22;20020;-86
2023/12/21 10:48:47;;;;;;;6.32;2.78;;;;;;;5.35;100.00;101116.25;6267843;22;20026;-85
2023/12/21 10:51:18;;;;;;;10.17;3.40;;;;;;;5.39;100.00;101127.59;6273667;22;20035;-86
2023/12/21 10:53:49;;;;;;;7.75;3.30;;;;;;;5.37;100.00;101121.50;6272846;22;20347;-86
2023/12/21 10:56:28;;;;;;;5.45;2.05;;;;;;;5.36;100.00;101122.28;6272482;22;20015;-86
2023/12/21 10:59:01;;;;;;;5.40;2.30;;;;;;;5.36;100.00;101129.97;6272976;22;20090;-84
2023/12/21 11:04:07;;;;;;;5.13;2.08;;;;;;;5.38;100.00;101131.84;6256898;22;20019;-85
2023/12/21 11:06:37;;;;;;;7.55;2.30;;;;;;;5.40;100.00;101135.34;6271958;22;20016;-85
2023/12/21 11:09:08;;;;;;;4.25;1.98;;;;;;;5.35;100.00;101123.97;6275313;22;20113;-84
2023/12/21 11:11:41;;;;;;;7.70;2.00;;;;;;;5.38;100.00;101121.59;6271252;22;20099;-85
2023/12/21 11:14:10;;;;;;;2.75;1.98;;;;;;;5.40;100.00;101126.78;6273410;22;20095;-85
2023/12/21 11:16:45;;;;;;;4.70;1.50;;;;;;;5.37;100.00;101129.19;6272693;22;20019;-86
2023/12/21 11:19:30;;;;;;;3.35;1.63;;;;;;;5.38;100.00;101123.25;6272644;22;20020;-85
2023/12/21 11:22:00;;;;;;;3.72;1.60;;;;;;;5.32;100.00;101118.66;6273293;22;20020;-85
2023/12/21 11:24:31;;;;;;;3.45;1.77;;;;;;;5.33;100.00;101122.09;6272757;22;20019;-84
2023/12/21 11:27:03;;;;;;;3.13;1.58;;;;;;;5.26;100.00;101113.19;6273594;22;20026;-85
2023/12/21 11:29:33;;;;;;;3.23;1.40;;;;;;;5.27;100.00;101106.34;6271761;22;20051;-84
2023/12/21 11:32:05;;;;;;;3.10;1.35;;;;;;;5.34;100.00;101117.06;6273357;22;20020;-85
2023/12/21 11:34:45;;;;;;;3.85;2.03;;;;;;;5.34;100.00;101111.06;6273447;22;20023;-86
2023/12/21 11:37:25;;;;;;;4.57;1.52;;;;;;;5.36;100.00;101115.47;6274263;22;20450;-85
2023/12/21 11:40:00;;;;;;;2.88;1.55;;;;;;;5.36;100.00;101114.56;6272627;22;20047;-86
2023/12/21 11:42:39;;;;;;;3.50;1.40;;;;;;;5.36;100.00;101118.06;6273073;22;20015;-85
2023/12/21 11:45:10;;;;;;;2.45;1.52;;;;;;;5.35;100.00;101118.81;6271547;22;20158;-86
2023/12/21 11:47:45;;;;;;;4.13;1.52;;;;;;;5.32;100.00;101125.50;6272324;22;20024;-86
2023/12/21 11:50:21;;;;;;;2.72;1.50;;;;;;;5.27;100.00;101126.88;6271893;22;20016;-86
2023/12/21 11:52:52;;;;;;;2.38;1.88;;;;;;;5.24;100.00;101118.25;6271645;22;20039;-86
2023/12/21 11:55:28;;;;;;;1.77;1.27;;;;;;;5.18;100.00;101125.59;6273151;22;20022;-86
2023/12/21 11:58:20;;;;;;;1.67;1.00;;;;;;;5.18;100.00;101130.72;6271650;22;20309;-85
2023/12/21 12:00:52;;;;;;;2.38;1.23;;;;;;;5.22;100.00;101124.97;6272420;22;20020;-86
2023/12/21 12:03:22;;;;;;;1.85;1.30;;;;;;;5.19;100.00;101117.06;6272944;22;20026;-84
2023/12/21 12:06:03;;;;;;;2.15;1.23;;;;;;;5.17;100.00;101125.50;6271430;22;20024;-85
2023/12/21 12:08:35;;;;;;;7.75;1.45;;;;;;;5.12;100.00;101125.22;6273094;22;20024;-85
2023/12/21 12:11:04;;;;;;;2.90;1.38;;;;;;;5.16;100.00;101127.16;6270303;22;20012;-85
2023/12/21 12:13:40;;;;;;;4.30;1.45;;;;;;;5.17;100.00;101130.63;6277651;22;20015;-85
2023/12/21 12:16:10;;;;;;;3.05;1.27;;;;;;;5.18;100.00;101137.53;6272546;22;20455;-85
2023/12/21 12:18:41;;;;;;;5.88;1.40;;;;;;;5.20;100.00;101134.25;6269108;22;20023;-85
2023/12/21 12:21:22;;;;;;;3.20;1.48;;;;;;;5.13;100.00;101129.56;6272813;22;20346;-85
2023/12/21 12:23:51;;;;;;;1.90;0.93;;;;;;;5.19;100.00;101139.28;6273153;22;20015;-85
2023/12/21 12:26:20;;;;;;;5.22;1.38;;;;;;;5.21;100.00;101140.25;6272721;22;20024;-85
2023/12/21 20:25:06;;;;;;;5.38;2.95;;;;;;;6.65;100.00;101183.25;6281563;22;20007;-86
2023/12/21 20:27:35;;;;;;;4.55;2.80;;;;;;;6.76;100.00;101176.97;6215372;23;20024;-87
2023/12/21 20:30:17;;;;;;;3.60;2.22;;;;;;;6.83;100.00;101178.19;6215432;23;20025;-87
2023/12/21 20:32:48;;;;;;;9.18;3.30;;;;;;;6.86;100.00;101176.63;6215529;23;20022;-85
2023/12/21 20:35:18;;;;;;;5.28;2.90;;;;;;;6.75;100.00;101174.31;6217078;23;20016;-88
2023/12/21 23:06:49;;;;;;;6.25;3.65;;;;;;;7.73;100.00;101050.38;6284382;22;20016;-87
2023/12/21 23:09:18;;;;;;;4.85;3.13;;;;;;;7.71;100.00;101052.88;6276331;22;20023;-86
